Santa Cruz, Brazil
Current Conditions -  °F | °C
As of 5:00 AM on Tuesday 27 Jan 2015 (Local Time) from SBNT Reporting Station
Rain Showers Rain Showers  
Wind Chill: 73°   Ceiling: Unl
Heat Index: 73°   Visibility: 6mi
Dew Point: 68°   Wind: 6mph
Humidity: 83%   Direction: 190°S
Pressure: 29.91"   Gusts: NA
Location:  6.23°S, 36.02°W
Report Text: SBNT 270800Z 19005KT 9999 VCSH FEW020 FEW022TCU 23/20 Q1013
Loading
Personal Weather Stations






























Interactive Weather Map New forecast layout! Learn more

10-Day Weather Forecast

Advertisements
Track Severe Weather on mobile